sensor_id;sensor_type;location;lat;lon;timestamp;P1;durP1;ratioP1;P2;durP2;ratioP2
56999;SDS011;42891;50.006;21.964;2023-05-07T00:00:48;19.02;;;13.90;;
56999;SDS011;42891;50.006;21.964;2023-05-07T00:04:49;14.60;;;11.18;;
56999;SDS011;42891;50.006;21.964;2023-05-07T00:08:50;12.85;;;9.93;;
56999;SDS011;42891;50.006;21.964;2023-05-07T00:12:50;13.07;;;9.90;;
56999;SDS011;42891;50.006;21.964;2023-05-07T00:16:50;15.90;;;10.77;;
56999;SDS011;42891;50.006;21.964;2023-05-07T00:20:51;13.80;;;10.53;;
56999;SDS011;42891;50.006;21.964;2023-05-07T00:24:51;15.35;;;11.10;;
56999;SDS011;42891;50.006;21.964;2023-05-07T00:28:51;16.60;;;11.73;;
56999;SDS011;42891;50.006;21.964;2023-05-07T00:32:52;13.70;;;10.48;;
56999;SDS011;42891;50.006;21.964;2023-05-07T00:36:52;16.58;;;11.75;;
56999;SDS011;42891;50.006;21.964;2023-05-07T00:40:53;15.82;;;11.27;;
56999;SDS011;42891;50.006;21.964;2023-05-07T00:44:53;17.63;;;11.93;;
56999;SDS011;42891;50.006;21.964;2023-05-07T00:48:53;16.40;;;11.52;;
56999;SDS011;42891;50.006;21.964;2023-05-07T00:52:54;15.52;;;11.40;;
56999;SDS011;42891;50.006;21.964;2023-05-07T00:56:55;14.05;;;10.70;;
56999;SDS011;42891;50.006;21.964;2023-05-07T01:00:56;13.27;;;10.20;;
56999;SDS011;42891;50.006;21.964;2023-05-07T01:04:56;16.20;;;9.97;;
56999;SDS011;42891;50.006;21.964;2023-05-07T01:08:56;13.25;;;10.02;;
56999;SDS011;42891;50.006;21.964;2023-05-07T01:12:58;13.63;;;9.77;;
56999;SDS011;42891;50.006;21.964;2023-05-07T01:16:59;15.02;;;10.43;;
56999;SDS011;42891;50.006;21.964;2023-05-07T01:20:59;15.85;;;11.27;;
56999;SDS011;42891;50.006;21.964;2023-05-07T01:25:06;19.40;;;11.60;;
56999;SDS011;42891;50.006;21.964;2023-05-07T01:29:08;16.42;;;11.35;;
56999;SDS011;42891;50.006;21.964;2023-05-07T01:33:09;14.00;;;10.47;;
56999;SDS011;42891;50.006;21.964;2023-05-07T01:37:13;19.08;;;10.90;;
56999;SDS011;42891;50.006;21.964;2023-05-07T01:41:14;13.70;;;9.85;;
56999;SDS011;42891;50.006;21.964;2023-05-07T01:45:16;14.23;;;9.88;;
56999;SDS011;42891;50.006;21.964;2023-05-07T01:49:17;14.40;;;10.70;;
56999;SDS011;42891;50.006;21.964;2023-05-07T01:53:18;16.17;;;11.27;;
56999;SDS011;42891;50.006;21.964;2023-05-07T01:57:18;19.53;;;12.27;;
56999;SDS011;42891;50.006;21.964;2023-05-07T02:01:19;17.42;;;11.73;;
56999;SDS011;42891;50.006;21.964;2023-05-07T02:05:19;17.60;;;12.48;;
56999;SDS011;42891;50.006;21.964;2023-05-07T02:09:20;18.45;;;13.02;;
56999;SDS011;42891;50.006;21.964;2023-05-07T02:13:20;20.50;;;12.97;;
56999;SDS011;42891;50.006;21.964;2023-05-07T02:17:22;20.13;;;13.00;;
56999;SDS011;42891;50.006;21.964;2023-05-07T02:21:22;20.25;;;13.68;;
56999;SDS011;42891;50.006;21.964;2023-05-07T02:25:22;19.70;;;12.82;;
56999;SDS011;42891;50.006;21.964;2023-05-07T02:29:23;19.77;;;13.10;;
56999;SDS011;42891;50.006;21.964;2023-05-07T02:33:23;18.52;;;12.40;;
56999;SDS011;42891;50.006;21.964;2023-05-07T02:37:24;20.70;;;13.48;;
56999;SDS011;42891;50.006;21.964;2023-05-07T02:41:24;20.80;;;14.25;;
56999;SDS011;42891;50.006;21.964;2023-05-07T02:45:24;19.98;;;13.35;;
56999;SDS011;42891;50.006;21.964;2023-05-07T02:49:25;32.88;;;14.85;;
56999;SDS011;42891;50.006;21.964;2023-05-07T02:53:26;29.70;;;18.10;;
56999;SDS011;42891;50.006;21.964;2023-05-07T02:57:26;29.02;;;17.80;;
56999;SDS011;42891;50.006;21.964;2023-05-07T03:01:27;31.77;;;16.53;;
56999;SDS011;42891;50.006;21.964;2023-05-07T03:05:27;27.27;;;16.45;;
56999;SDS011;42891;50.006;21.964;2023-05-07T03:09:27;27.50;;;16.38;;
56999;SDS011;42891;50.006;21.964;2023-05-07T03:13:28;15.90;;;11.32;;
56999;SDS011;42891;50.006;21.964;2023-05-07T03:17:28;16.25;;;11.35;;
56999;SDS011;42891;50.006;21.964;2023-05-07T03:21:28;16.10;;;10.80;;
56999;SDS011;42891;50.006;21.964;2023-05-07T03:25:31;16.98;;;10.80;;
56999;SDS011;42891;50.006;21.964;2023-05-07T03:29:31;17.48;;;11.40;;
56999;SDS011;42891;50.006;21.964;2023-05-07T03:33:34;15.63;;;10.95;;
56999;SDS011;42891;50.006;21.964;2023-05-07T03:37:35;20.02;;;11.23;;
56999;SDS011;42891;50.006;21.964;2023-05-07T03:41:35;18.48;;;11.55;;
56999;SDS011;42891;50.006;21.964;2023-05-07T03:45:35;15.07;;;10.60;;
56999;SDS011;42891;50.006;21.964;2023-05-07T03:49:36;16.80;;;10.80;;
56999;SDS011;42891;50.006;21.964;2023-05-07T03:53:36;15.02;;;9.77;;
56999;SDS011;42891;50.006;21.964;2023-05-07T03:57:37;19.40;;;9.75;;
56999;SDS011;42891;50.006;21.964;2023-05-07T04:01:37;17.95;;;9.57;;
56999;SDS011;42891;50.006;21.964;2023-05-07T04:05:38;18.20;;;9.40;;
56999;SDS011;42891;50.006;21.964;2023-05-07T04:09:38;15.43;;;9.97;;
56999;SDS011;42891;50.006;21.964;2023-05-07T04:13:38;16.90;;;9.70;;
56999;SDS011;42891;50.006;21.964;2023-05-07T04:17:38;12.20;;;8.45;;
56999;SDS011;42891;50.006;21.964;2023-05-07T04:21:39;16.63;;;10.55;;
56999;SDS011;42891;50.006;21.964;2023-05-07T04:25:40;17.92;;;11.00;;
56999;SDS011;42891;50.006;21.964;2023-05-07T04:29:40;13.15;;;9.50;;
56999;SDS011;42891;50.006;21.964;2023-05-07T04:33:42;18.95;;;9.73;;
56999;SDS011;42891;50.006;21.964;2023-05-07T04:37:42;18.65;;;9.48;;
56999;SDS011;42891;50.006;21.964;2023-05-07T04:41:43;15.65;;;9.82;;
56999;SDS011;42891;50.006;21.964;2023-05-07T04:45:43;15.45;;;9.98;;
56999;SDS011;42891;50.006;21.964;2023-05-07T04:49:43;17.67;;;9.73;;
56999;SDS011;42891;50.006;21.964;2023-05-07T04:53:44;18.80;;;10.57;;
56999;SDS011;42891;50.006;21.964;2023-05-07T04:57:45;17.48;;;9.82;;
56999;SDS011;42891;50.006;21.964;2023-05-07T05:01:45;17.27;;;10.52;;
56999;SDS011;42891;50.006;21.964;2023-05-07T05:05:45;18.20;;;10.10;;
56999;SDS011;42891;50.006;21.964;2023-05-07T05:09:46;18.15;;;11.18;;
56999;SDS011;42891;50.006;21.964;2023-05-07T05:13:46;15.48;;;9.88;;
56999;SDS011;42891;50.006;21.964;2023-05-07T05:17:49;17.27;;;10.00;;
56999;SDS011;42891;50.006;21.964;2023-05-07T05:21:49;16.63;;;10.13;;
56999;SDS011;42891;50.006;21.964;2023-05-07T05:25:49;17.20;;;10.00;;
56999;SDS011;42891;50.006;21.964;2023-05-07T05:29:50;19.47;;;10.50;;
56999;SDS011;42891;50.006;21.964;2023-05-07T05:33:50;19.05;;;10.05;;
56999;SDS011;42891;50.006;21.964;2023-05-07T05:37:50;17.60;;;9.95;;
56999;SDS011;42891;50.006;21.964;2023-05-07T05:41:51;15.30;;;9.43;;
56999;SDS011;42891;50.006;21.964;2023-05-07T05:45:51;14.63;;;9.40;;
56999;SDS011;42891;50.006;21.964;2023-05-07T05:49:51;15.93;;;10.13;;
56999;SDS011;42891;50.006;21.964;2023-05-07T05:53:52;26.90;;;13.63;;
56999;SDS011;42891;50.006;21.964;2023-05-07T05:57:52;19.48;;;9.13;;
56999;SDS011;42891;50.006;21.964;2023-05-07T06:01:52;18.67;;;10.40;;
56999;SDS011;42891;50.006;21.964;2023-05-07T06:05:53;11.75;;;8.20;;
56999;SDS011;42891;50.006;21.964;2023-05-07T06:09:53;15.00;;;8.60;;
56999;SDS011;42891;50.006;21.964;2023-05-07T06:13:53;17.75;;;8.70;;
56999;SDS011;42891;50.006;21.964;2023-05-07T06:17:54;15.48;;;8.23;;
56999;SDS011;42891;50.006;21.964;2023-05-07T06:21:57;17.88;;;9.27;;
56999;SDS011;42891;50.006;21.964;2023-05-07T06:25:57;12.93;;;8.35;;
56999;SDS011;42891;50.006;21.964;2023-05-07T06:29:58;12.65;;;7.60;;
56999;SDS011;42891;50.006;21.964;2023-05-07T06:33:58;10.40;;;7.15;;
56999;SDS011;42891;50.006;21.964;2023-05-07T06:37:59;11.45;;;6.88;;
56999;SDS011;42891;50.006;21.964;2023-05-07T06:42:00;11.23;;;6.90;;
56999;SDS011;42891;50.006;21.964;2023-05-07T06:46:02;13.05;;;6.47;;
56999;SDS011;42891;50.006;21.964;2023-05-07T06:50:02;11.90;;;6.20;;
56999;SDS011;42891;50.006;21.964;2023-05-07T06:54:02;11.15;;;6.55;;
56999;SDS011;42891;50.006;21.964;2023-05-07T06:58:04;12.60;;;6.63;;
56999;SDS011;42891;50.006;21.964;2023-05-07T07:02:05;11.75;;;6.22;;
56999;SDS011;42891;50.006;21.964;2023-05-07T07:06:06;10.27;;;6.22;;
56999;SDS011;42891;50.006;21.964;2023-05-07T07:10:06;10.05;;;6.60;;
56999;SDS011;42891;50.006;21.964;2023-05-07T07:14:07;11.52;;;6.93;;
56999;SDS011;42891;50.006;21.964;2023-05-07T07:18:07;10.10;;;7.15;;
56999;SDS011;42891;50.006;21.964;2023-05-07T07:22:08;13.40;;;7.53;;
56999;SDS011;42891;50.006;21.964;2023-05-07T07:26:08;9.70;;;7.05;;
56999;SDS011;42891;50.006;21.964;2023-05-07T07:30:11;12.18;;;7.60;;
56999;SDS011;42891;50.006;21.964;2023-05-07T07:34:11;14.02;;;8.13;;
56999;SDS011;42891;50.006;21.964;2023-05-07T07:38:11;12.20;;;7.53;;
56999;SDS011;42891;50.006;21.964;2023-05-07T07:42:14;11.02;;;7.25;;
56999;SDS011;42891;50.006;21.964;2023-05-07T07:46:14;11.40;;;7.57;;
56999;SDS011;42891;50.006;21.964;2023-05-07T07:50:15;12.25;;;7.28;;
56999;SDS011;42891;50.006;21.964;2023-05-07T07:54:15;10.77;;;6.93;;
56999;SDS011;42891;50.006;21.964;2023-05-07T07:58:15;11.88;;;7.90;;
56999;SDS011;42891;50.006;21.964;2023-05-07T08:02:16;14.15;;;7.30;;
56999;SDS011;42891;50.006;21.964;2023-05-07T08:06:17;11.70;;;6.90;;
56999;SDS011;42891;50.006;21.964;2023-05-07T08:10:17;16.35;;;9.55;;
56999;SDS011;42891;50.006;21.964;2023-05-07T08:14:21;8.77;;;6.45;;
56999;SDS011;42891;50.006;21.964;2023-05-07T08:18:21;12.38;;;8.10;;
56999;SDS011;42891;50.006;21.964;2023-05-07T08:22:23;9.98;;;6.63;;
56999;SDS011;42891;50.006;21.964;2023-05-07T08:26:23;11.00;;;6.57;;
56999;SDS011;42891;50.006;21.964;2023-05-07T08:30:26;8.18;;;5.47;;
56999;SDS011;42891;50.006;21.964;2023-05-07T08:34:26;9.20;;;6.20;;
56999;SDS011;42891;50.006;21.964;2023-05-07T08:38:27;10.93;;;6.88;;
56999;SDS011;42891;50.006;21.964;2023-05-07T08:42:27;10.32;;;6.43;;
56999;SDS011;42891;50.006;21.964;2023-05-07T08:46:31;9.25;;;6.72;;
56999;SDS011;42891;50.006;21.964;2023-05-07T08:50:32;10.90;;;6.50;;
56999;SDS011;42891;50.006;21.964;2023-05-07T08:54:36;10.70;;;6.47;;
56999;SDS011;42891;50.006;21.964;2023-05-07T08:58:37;12.00;;;5.90;;
56999;SDS011;42891;50.006;21.964;2023-05-07T09:02:38;11.65;;;6.47;;
56999;SDS011;42891;50.006;21.964;2023-05-07T09:06:38;11.38;;;7.28;;
56999;SDS011;42891;50.006;21.964;2023-05-07T09:10:41;9.05;;;6.70;;
56999;SDS011;42891;50.006;21.964;2023-05-07T09:14:42;9.80;;;6.07;;
56999;SDS011;42891;50.006;21.964;2023-05-07T09:18:42;10.13;;;6.60;;
56999;SDS011;42891;50.006;21.964;2023-05-07T09:22:43;11.77;;;6.63;;
56999;SDS011;42891;50.006;21.964;2023-05-07T09:26:44;11.05;;;7.43;;
56999;SDS011;42891;50.006;21.964;2023-05-07T09:30:44;10.85;;;7.38;;
56999;SDS011;42891;50.006;21.964;2023-05-07T09:34:45;13.52;;;7.22;;
56999;SDS011;42891;50.006;21.964;2023-05-07T09:38:47;10.88;;;7.35;;
56999;SDS011;42891;50.006;21.964;2023-05-07T09:42:47;10.77;;;7.07;;
56999;SDS011;42891;50.006;21.964;2023-05-07T09:46:53;12.90;;;7.05;;
56999;SDS011;42891;50.006;21.964;2023-05-07T09:50:57;10.23;;;6.72;;
56999;SDS011;42891;50.006;21.964;2023-05-07T09:55:02;11.23;;;6.93;;
56999;SDS011;42891;50.006;21.964;2023-05-07T09:59:03;8.80;;;6.22;;
56999;SDS011;42891;50.006;21.964;2023-05-07T10:03:06;12.15;;;8.32;;
56999;SDS011;42891;50.006;21.964;2023-05-07T10:07:09;9.77;;;7.25;;
56999;SDS011;42891;50.006;21.964;2023-05-07T10:11:09;9.63;;;6.63;;
56999;SDS011;42891;50.006;21.964;2023-05-07T10:15:10;9.40;;;7.32;;
56999;SDS011;42891;50.006;21.964;2023-05-07T10:19:11;6.80;;;6.00;;
56999;SDS011;42891;50.006;21.964;2023-05-07T10:23:12;10.57;;;6.80;;
56999;SDS011;42891;50.006;21.964;2023-05-07T10:27:14;7.93;;;5.78;;
56999;SDS011;42891;50.006;21.964;2023-05-07T10:35:45;7.68;;;6.75;;
56999;SDS011;42891;50.006;21.964;2023-05-07T10:39:50;10.48;;;6.55;;
56999;SDS011;42891;50.006;21.964;2023-05-07T10:43:52;11.20;;;7.35;;
56999;SDS011;42891;50.006;21.964;2023-05-07T10:52:21;11.35;;;6.20;;
56999;SDS011;42891;50.006;21.964;2023-05-07T10:56:30;6.72;;;5.60;;
56999;SDS011;42891;50.006;21.964;2023-05-07T11:04:30;8.53;;;5.87;;
56999;SDS011;42891;50.006;21.964;2023-05-07T11:13:07;8.77;;;6.43;;
56999;SDS011;42891;50.006;21.964;2023-05-07T11:17:08;7.95;;;6.03;;
56999;SDS011;42891;50.006;21.964;2023-05-07T11:21:09;7.45;;;6.00;;
56999;SDS011;42891;50.006;21.964;2023-05-07T11:25:10;8.60;;;5.95;;
56999;SDS011;42891;50.006;21.964;2023-05-07T11:29:11;8.00;;;5.90;;
56999;SDS011;42891;50.006;21.964;2023-05-07T11:33:19;7.75;;;5.60;;
56999;SDS011;42891;50.006;21.964;2023-05-07T11:37:20;13.18;;;7.47;;
56999;SDS011;42891;50.006;21.964;2023-05-07T11:41:21;9.07;;;7.00;;
56999;SDS011;42891;50.006;21.964;2023-05-07T11:45:23;11.07;;;6.40;;
56999;SDS011;42891;50.006;21.964;2023-05-07T11:49:26;8.95;;;5.55;;
56999;SDS011;42891;50.006;21.964;2023-05-07T11:53:27;7.57;;;5.82;;
56999;SDS011;42891;50.006;21.964;2023-05-07T11:57:34;6.72;;;5.47;;
56999;SDS011;42891;50.006;21.964;2023-05-07T12:01:35;6.72;;;4.80;;
56999;SDS011;42891;50.006;21.964;2023-05-07T12:05:36;8.73;;;5.90;;
56999;SDS011;42891;50.006;21.964;2023-05-07T12:09:42;7.78;;;5.93;;
56999;SDS011;42891;50.006;21.964;2023-05-07T12:13:43;10.77;;;6.20;;
56999;SDS011;42891;50.006;21.964;2023-05-07T12:17:43;10.77;;;6.40;;
56999;SDS011;42891;50.006;21.964;2023-05-07T12:21:44;8.85;;;5.50;;
56999;SDS011;42891;50.006;21.964;2023-05-07T12:25:44;6.47;;;5.07;;
56999;SDS011;42891;50.006;21.964;2023-05-07T12:29:48;8.02;;;5.57;;
56999;SDS011;42891;50.006;21.964;2023-05-07T12:33:49;7.95;;;5.43;;
56999;SDS011;42891;50.006;21.964;2023-05-07T12:37:54;11.73;;;6.30;;
56999;SDS011;42891;50.006;21.964;2023-05-07T12:41:59;11.48;;;5.55;;
56999;SDS011;42891;50.006;21.964;2023-05-07T12:46:00;6.47;;;4.97;;
56999;SDS011;42891;50.006;21.964;2023-05-07T12:50:05;6.95;;;5.07;;
56999;SDS011;42891;50.006;21.964;2023-05-07T12:54:06;5.88;;;4.65;;
56999;SDS011;42891;50.006;21.964;2023-05-07T12:58:06;8.60;;;5.30;;
56999;SDS011;42891;50.006;21.964;2023-05-07T13:02:09;7.53;;;5.70;;
56999;SDS011;42891;50.006;21.964;2023-05-07T13:06:10;7.25;;;5.47;;
56999;SDS011;42891;50.006;21.964;2023-05-07T13:10:12;5.30;;;4.47;;
56999;SDS011;42891;50.006;21.964;2023-05-07T13:14:12;5.73;;;4.20;;
56999;SDS011;42891;50.006;21.964;2023-05-07T13:18:12;5.93;;;4.20;;
56999;SDS011;42891;50.006;21.964;2023-05-07T13:22:13;7.30;;;4.40;;
56999;SDS011;42891;50.006;21.964;2023-05-07T13:26:13;5.50;;;4.53;;
56999;SDS011;42891;50.006;21.964;2023-05-07T13:30:14;8.25;;;4.00;;
56999;SDS011;42891;50.006;21.964;2023-05-07T13:34:14;7.68;;;4.20;;
56999;SDS011;42891;50.006;21.964;2023-05-07T13:38:14;5.72;;;3.80;;
56999;SDS011;42891;50.006;21.964;2023-05-07T13:42:15;4.43;;;3.58;;
56999;SDS011;42891;50.006;21.964;2023-05-07T13:46:16;9.55;;;4.60;;
56999;SDS011;42891;50.006;21.964;2023-05-07T13:50:16;6.20;;;3.58;;
56999;SDS011;42891;50.006;21.964;2023-05-07T13:54:17;5.00;;;3.72;;
56999;SDS011;42891;50.006;21.964;2023-05-07T13:58:17;5.72;;;3.67;;
56999;SDS011;42891;50.006;21.964;2023-05-07T14:02:18;5.55;;;3.85;;
56999;SDS011;42891;50.006;21.964;2023-05-07T14:06:18;6.97;;;4.28;;
56999;SDS011;42891;50.006;21.964;2023-05-07T14:10:19;5.97;;;3.97;;
56999;SDS011;42891;50.006;21.964;2023-05-07T14:14:19;4.40;;;3.50;;
56999;SDS011;42891;50.006;21.964;2023-05-07T14:18:19;4.72;;;3.55;;
56999;SDS011;42891;50.006;21.964;2023-05-07T14:22:20;4.60;;;3.28;;
56999;SDS011;42891;50.006;21.964;2023-05-07T14:26:22;4.65;;;3.08;;
56999;SDS011;42891;50.006;21.964;2023-05-07T14:30:23;5.45;;;3.38;;
56999;SDS011;42891;50.006;21.964;2023-05-07T14:34:24;5.57;;;3.50;;
56999;SDS011;42891;50.006;21.964;2023-05-07T14:38:24;3.03;;;2.72;;
56999;SDS011;42891;50.006;21.964;2023-05-07T14:42:25;4.60;;;3.22;;
56999;SDS011;42891;50.006;21.964;2023-05-07T14:46:25;4.60;;;3.00;;
56999;SDS011;42891;50.006;21.964;2023-05-07T14:50:25;4.15;;;3.22;;
56999;SDS011;42891;50.006;21.964;2023-05-07T14:54:26;5.07;;;2.90;;
56999;SDS011;42891;50.006;21.964;2023-05-07T14:58:26;4.78;;;3.17;;
56999;SDS011;42891;50.006;21.964;2023-05-07T15:02:26;5.90;;;3.60;;
56999;SDS011;42891;50.006;21.964;2023-05-07T15:06:27;6.30;;;3.53;;
56999;SDS011;42891;50.006;21.964;2023-05-07T15:10:27;5.03;;;3.25;;
56999;SDS011;42891;50.006;21.964;2023-05-07T15:14:28;5.95;;;2.97;;
56999;SDS011;42891;50.006;21.964;2023-05-07T15:18:28;5.78;;;3.20;;
56999;SDS011;42891;50.006;21.964;2023-05-07T15:22:28;4.78;;;3.30;;
56999;SDS011;42891;50.006;21.964;2023-05-07T15:26:29;5.05;;;3.55;;
56999;SDS011;42891;50.006;21.964;2023-05-07T15:30:30;6.47;;;3.42;;
56999;SDS011;42891;50.006;21.964;2023-05-07T15:34:30;4.97;;;3.58;;
56999;SDS011;42891;50.006;21.964;2023-05-07T15:38:31;5.82;;;3.20;;
56999;SDS011;42891;50.006;21.964;2023-05-07T15:42:31;5.72;;;3.20;;
56999;SDS011;42891;50.006;21.964;2023-05-07T15:46:32;4.43;;;3.40;;
56999;SDS011;42891;50.006;21.964;2023-05-07T15:50:32;6.38;;;3.50;;
56999;SDS011;42891;50.006;21.964;2023-05-07T15:54:32;3.47;;;3.13;;
56999;SDS011;42891;50.006;21.964;2023-05-07T15:58:33;5.43;;;3.33;;
56999;SDS011;42891;50.006;21.964;2023-05-07T16:02:34;5.63;;;3.72;;
56999;SDS011;42891;50.006;21.964;2023-05-07T16:06:36;4.68;;;3.40;;
56999;SDS011;42891;50.006;21.964;2023-05-07T16:10:36;4.82;;;3.55;;
56999;SDS011;42891;50.006;21.964;2023-05-07T16:14:37;4.50;;;3.60;;
56999;SDS011;42891;50.006;21.964;2023-05-07T16:18:37;5.63;;;4.20;;
56999;SDS011;42891;50.006;21.964;2023-05-07T16:22:37;6.88;;;4.70;;
56999;SDS011;42891;50.006;21.964;2023-05-07T16:26:38;5.25;;;4.30;;
56999;SDS011;42891;50.006;21.964;2023-05-07T16:30:38;8.20;;;4.47;;
56999;SDS011;42891;50.006;21.964;2023-05-07T16:34:38;5.20;;;4.35;;
56999;SDS011;42891;50.006;21.964;2023-05-07T16:38:39;5.55;;;3.90;;
56999;SDS011;42891;50.006;21.964;2023-05-07T16:42:39;5.38;;;3.90;;
56999;SDS011;42891;50.006;21.964;2023-05-07T16:46:39;7.97;;;4.22;;
56999;SDS011;42891;50.006;21.964;2023-05-07T16:50:40;5.65;;;3.85;;
56999;SDS011;42891;50.006;21.964;2023-05-07T16:54:43;6.97;;;3.70;;
56999;SDS011;42891;50.006;21.964;2023-05-07T16:58:43;4.68;;;3.53;;
56999;SDS011;42891;50.006;21.964;2023-05-07T17:02:44;5.25;;;3.45;;
56999;SDS011;42891;50.006;21.964;2023-05-07T17:06:45;5.72;;;3.88;;
56999;SDS011;42891;50.006;21.964;2023-05-07T17:10:46;4.88;;;3.95;;
56999;SDS011;42891;50.006;21.964;2023-05-07T17:14:46;6.07;;;4.20;;
56999;SDS011;42891;50.006;21.964;2023-05-07T17:18:46;7.65;;;4.13;;
56999;SDS011;42891;50.006;21.964;2023-05-07T17:22:47;5.38;;;4.15;;
56999;SDS011;42891;50.006;21.964;2023-05-07T17:26:47;6.22;;;4.18;;
56999;SDS011;42891;50.006;21.964;2023-05-07T17:30:47;8.43;;;5.10;;
56999;SDS011;42891;50.006;21.964;2023-05-07T17:34:48;5.53;;;4.20;;
56999;SDS011;42891;50.006;21.964;2023-05-07T17:38:49;5.40;;;4.15;;
56999;SDS011;42891;50.006;21.964;2023-05-07T17:42:49;5.90;;;4.28;;
56999;SDS011;42891;50.006;21.964;2023-05-07T17:46:50;5.43;;;3.55;;
56999;SDS011;42891;50.006;21.964;2023-05-07T17:50:50;4.03;;;3.30;;
56999;SDS011;42891;50.006;21.964;2023-05-07T17:54:51;4.63;;;3.97;;
56999;SDS011;42891;50.006;21.964;2023-05-07T17:58:51;5.68;;;4.22;;
56999;SDS011;42891;50.006;21.964;2023-05-07T18:02:53;6.65;;;4.40;;
56999;SDS011;42891;50.006;21.964;2023-05-07T18:06:53;5.10;;;4.00;;
56999;SDS011;42891;50.006;21.964;2023-05-07T18:10:54;6.97;;;4.47;;
56999;SDS011;42891;50.006;21.964;2023-05-07T18:14:54;4.72;;;4.13;;
56999;SDS011;42891;50.006;21.964;2023-05-07T18:18:55;5.55;;;4.57;;
56999;SDS011;42891;50.006;21.964;2023-05-07T18:22:55;6.93;;;4.55;;
56999;SDS011;42891;50.006;21.964;2023-05-07T18:26:55;8.65;;;5.80;;
56999;SDS011;42891;50.006;21.964;2023-05-07T18:30:56;9.10;;;5.50;;
56999;SDS011;42891;50.006;21.964;2023-05-07T18:34:56;5.90;;;5.10;;
56999;SDS011;42891;50.006;21.964;2023-05-07T18:38:56;5.95;;;4.43;;
56999;SDS011;42891;50.006;21.964;2023-05-07T18:42:57;6.40;;;4.40;;
56999;SDS011;42891;50.006;21.964;2023-05-07T18:46:57;5.90;;;4.88;;
56999;SDS011;42891;50.006;21.964;2023-05-07T18:50:57;4.43;;;4.03;;
56999;SDS011;42891;50.006;21.964;2023-05-07T18:54:58;7.80;;;5.40;;
56999;SDS011;42891;50.006;21.964;2023-05-07T18:58:58;6.72;;;4.85;;
56999;SDS011;42891;50.006;21.964;2023-05-07T19:02:58;6.90;;;5.63;;
56999;SDS011;42891;50.006;21.964;2023-05-07T19:06:59;6.40;;;4.57;;
56999;SDS011;42891;50.006;21.964;2023-05-07T19:10:59;9.07;;;5.25;;
56999;SDS011;42891;50.006;21.964;2023-05-07T19:15:01;6.15;;;4.70;;
56999;SDS011;42891;50.006;21.964;2023-05-07T19:19:02;6.50;;;4.75;;
56999;SDS011;42891;50.006;21.964;2023-05-07T19:23:03;6.55;;;4.68;;
56999;SDS011;42891;50.006;21.964;2023-05-07T19:27:05;5.82;;;5.20;;
56999;SDS011;42891;50.006;21.964;2023-05-07T19:31:07;7.78;;;5.50;;
56999;SDS011;42891;50.006;21.964;2023-05-07T19:35:07;5.75;;;4.82;;
56999;SDS011;42891;50.006;21.964;2023-05-07T19:39:08;6.03;;;5.18;;
56999;SDS011;42891;50.006;21.964;2023-05-07T19:43:08;7.00;;;4.85;;
56999;SDS011;42891;50.006;21.964;2023-05-07T19:47:08;7.15;;;5.40;;
56999;SDS011;42891;50.006;21.964;2023-05-07T19:51:09;7.53;;;5.55;;
56999;SDS011;42891;50.006;21.964;2023-05-07T19:55:10;7.00;;;5.15;;
56999;SDS011;42891;50.006;21.964;2023-05-07T19:59:11;5.40;;;4.80;;
56999;SDS011;42891;50.006;21.964;2023-05-07T20:03:12;6.50;;;5.20;;
56999;SDS011;42891;50.006;21.964;2023-05-07T20:07:17;5.65;;;4.80;;
56999;SDS011;42891;50.006;21.964;2023-05-07T20:11:17;7.55;;;4.80;;
56999;SDS011;42891;50.006;21.964;2023-05-07T20:15:19;5.93;;;4.72;;
56999;SDS011;42891;50.006;21.964;2023-05-07T20:19:20;6.18;;;4.93;;
56999;SDS011;42891;50.006;21.964;2023-05-07T20:23:20;7.30;;;4.78;;
56999;SDS011;42891;50.006;21.964;2023-05-07T20:27:21;6.13;;;5.30;;
56999;SDS011;42891;50.006;21.964;2023-05-07T20:31:33;6.72;;;5.13;;
56999;SDS011;42891;50.006;21.964;2023-05-07T20:35:34;7.53;;;5.63;;
56999;SDS011;42891;50.006;21.964;2023-05-07T20:39:34;7.07;;;4.72;;
56999;SDS011;42891;50.006;21.964;2023-05-07T20:43:35;7.55;;;5.40;;
56999;SDS011;42891;50.006;21.964;2023-05-07T20:47:36;4.80;;;4.25;;
56999;SDS011;42891;50.006;21.964;2023-05-07T20:51:37;6.57;;;4.70;;
56999;SDS011;42891;50.006;21.964;2023-05-07T20:55:37;6.63;;;4.75;;
56999;SDS011;42891;50.006;21.964;2023-05-07T20:59:37;7.97;;;4.90;;
56999;SDS011;42891;50.006;21.964;2023-05-07T21:03:39;6.90;;;5.03;;
56999;SDS011;42891;50.006;21.964;2023-05-07T21:07:39;7.13;;;5.95;;
56999;SDS011;42891;50.006;21.964;2023-05-07T21:11:40;6.28;;;5.35;;
56999;SDS011;42891;50.006;21.964;2023-05-07T21:15:40;7.82;;;6.13;;
56999;SDS011;42891;50.006;21.964;2023-05-07T21:19:41;5.70;;;4.85;;
56999;SDS011;42891;50.006;21.964;2023-05-07T21:23:42;6.20;;;5.60;;
56999;SDS011;42891;50.006;21.964;2023-05-07T21:27:42;5.45;;;4.32;;
56999;SDS011;42891;50.006;21.964;2023-05-07T21:31:42;6.10;;;5.10;;
56999;SDS011;42891;50.006;21.964;2023-05-07T21:35:43;5.93;;;5.20;;
56999;SDS011;42891;50.006;21.964;2023-05-07T21:39:43;7.38;;;6.63;;
56999;SDS011;42891;50.006;21.964;2023-05-07T21:43:44;7.80;;;5.57;;
56999;SDS011;42891;50.006;21.964;2023-05-07T21:47:44;5.97;;;5.05;;
56999;SDS011;42891;50.006;21.964;2023-05-07T21:51:45;6.80;;;5.63;;
56999;SDS011;42891;50.006;21.964;2023-05-07T21:55:45;7.07;;;5.50;;
56999;SDS011;42891;50.006;21.964;2023-05-07T21:59:45;7.47;;;6.20;;
56999;SDS011;42891;50.006;21.964;2023-05-07T22:03:46;6.38;;;5.75;;
56999;SDS011;42891;50.006;21.964;2023-05-07T22:07:46;6.72;;;5.65;;
56999;SDS011;42891;50.006;21.964;2023-05-07T22:11:47;7.85;;;5.15;;
56999;SDS011;42891;50.006;21.964;2023-05-07T22:15:47;7.13;;;5.07;;
56999;SDS011;42891;50.006;21.964;2023-05-07T22:19:47;7.80;;;5.80;;
56999;SDS011;42891;50.006;21.964;2023-05-07T22:23:47;7.50;;;6.70;;
56999;SDS011;42891;50.006;21.964;2023-05-07T22:27:48;10.05;;;6.68;;
56999;SDS011;42891;50.006;21.964;2023-05-07T22:31:49;9.25;;;6.43;;
56999;SDS011;42891;50.006;21.964;2023-05-07T22:35:49;8.32;;;7.18;;
56999;SDS011;42891;50.006;21.964;2023-05-07T22:39:50;8.23;;;6.57;;
56999;SDS011;42891;50.006;21.964;2023-05-07T22:43:50;8.02;;;6.53;;
56999;SDS011;42891;50.006;21.964;2023-05-07T22:47:50;9.98;;;8.25;;
56999;SDS011;42891;50.006;21.964;2023-05-07T22:51:51;9.18;;;7.97;;
56999;SDS011;42891;50.006;21.964;2023-05-07T22:55:51;7.03;;;6.28;;
56999;SDS011;42891;50.006;21.964;2023-05-07T22:59:52;10.55;;;6.80;;
56999;SDS011;42891;50.006;21.964;2023-05-07T23:03:55;7.60;;;6.20;;
56999;SDS011;42891;50.006;21.964;2023-05-07T23:07:56;7.63;;;6.15;;
56999;SDS011;42891;50.006;21.964;2023-05-07T23:11:57;8.90;;;7.53;;
56999;SDS011;42891;50.006;21.964;2023-05-07T23:15:57;8.05;;;5.95;;
56999;SDS011;42891;50.006;21.964;2023-05-07T23:19:57;7.75;;;6.07;;
56999;SDS011;42891;50.006;21.964;2023-05-07T23:23:58;10.43;;;6.43;;
56999;SDS011;42891;50.006;21.964;2023-05-07T23:27:58;10.48;;;8.30;;
56999;SDS011;42891;50.006;21.964;2023-05-07T23:31:59;11.88;;;8.80;;
56999;SDS011;42891;50.006;21.964;2023-05-07T23:36:00;9.88;;;7.88;;
56999;SDS011;42891;50.006;21.964;2023-05-07T23:40:02;11.00;;;7.93;;
56999;SDS011;42891;50.006;21.964;2023-05-07T23:44:02;9.85;;;7.63;;
56999;SDS011;42891;50.006;21.964;2023-05-07T23:48:03;10.93;;;8.27;;
56999;SDS011;42891;50.006;21.964;2023-05-07T23:52:03;9.85;;;8.30;;